createdAt,value
2023-03-27T00:01:27.288Z,97981.28
2023-03-27T00:06:49.824Z,97990.84
2023-03-27T00:12:12.054Z,98012.78
2023-03-27T00:17:34.346Z,98003.59
2023-03-27T00:22:56.937Z,97998.22
2023-03-27T00:28:19.483Z,98000.88
2023-03-27T00:33:41.751Z,97997.28
2023-03-27T00:39:06.834Z,97995.22
2023-03-27T00:44:34.906Z,98003.41
2023-03-27T00:49:59.526Z,97995.72
2023-03-27T00:55:22.989Z,98004.19
2023-03-27T01:00:45.406Z,97978.84
2023-03-27T01:06:07.887Z,97997.66
2023-03-27T01:11:44.318Z,97978.09
2023-03-27T01:17:33.060Z,97987.41
2023-03-27T01:23:35.369Z,97992.06
2023-03-27T01:29:23.057Z,97980.13
2023-03-27T01:35:01.677Z,97986.44
2023-03-27T01:40:35.118Z,97980.91
2023-03-27T01:46:12.885Z,97980.91
2023-03-27T01:51:47.720Z,97935.78
2023-03-27T01:57:31.559Z,97977.94
2023-03-27T02:03:16.962Z,97963.53
2023-03-27T02:08:51.080Z,97974.97
2023-03-27T02:14:21.500Z,97940.13
2023-03-27T02:20:10.042Z,97925.75
2023-03-27T02:25:37.403Z,97964.47
2023-03-27T02:31:32.401Z,97956.81
2023-03-27T02:37:32.842Z,97953.06
2023-03-27T02:43:24.221Z,97967.16
2023-03-27T02:48:59.282Z,97964.41
2023-03-27T02:54:36.917Z,97954.47
2023-03-27T03:00:21.414Z,97946.56
2023-03-27T03:05:48.672Z,97959.13
2023-03-27T03:17:13.515Z,97928.00
2023-03-27T03:22:38.784Z,97954.50
2023-03-27T03:28:01.926Z,97938.66
2023-03-27T03:33:54.145Z,97965.31
2023-03-27T03:39:26.627Z,97951.22
2023-03-27T03:44:49.818Z,97947.78
2023-03-27T03:50:17.341Z,97966.81
2023-03-27T03:55:40.524Z,97940.00
2023-03-27T04:06:46.798Z,97949.84
2023-03-27T04:12:17.232Z,97926.84
2023-03-27T04:18:05.209Z,97968.47
2023-03-27T04:23:31.117Z,97966.22
2023-03-27T04:28:55.069Z,97948.19
2023-03-27T04:34:38.951Z,97955.09
2023-03-27T04:40:21.433Z,97973.84
2023-03-27T04:45:48.838Z,97973.84
2023-03-27T04:51:12.666Z,97984.03
2023-03-27T04:56:35.519Z,97988.91
2023-03-27T05:01:59.672Z,97992.03
2023-03-27T05:07:36.923Z,97992.34
2023-03-27T05:13:02.064Z,97988.13
2023-03-27T05:18:24.470Z,97981.59
2023-03-27T05:23:46.834Z,97981.59
2023-03-27T05:29:17.827Z,97973.72
2023-03-27T05:34:42.959Z,98004.00
2023-03-27T05:40:09.834Z,97998.19
2023-03-27T05:45:35.069Z,97999.63
2023-03-27T05:50:57.841Z,98011.06
2023-03-27T05:56:21.084Z,98017.69
2023-03-27T06:01:52.754Z,98025.47
2023-03-27T06:07:20.173Z,98020.16
2023-03-27T06:12:47.599Z,98006.94
2023-03-27T06:18:23.986Z,98021.38
2023-03-27T06:23:47.091Z,98029.88
2023-03-27T06:29:11.468Z,98040.16
2023-03-27T06:34:40.815Z,98045.75
2023-03-27T06:40:25.807Z,98057.13
2023-03-27T06:45:51.618Z,98073.81
2023-03-27T06:51:32.044Z,98064.44
2023-03-27T06:56:54.375Z,98073.72
2023-03-27T07:02:17.174Z,98092.25
2023-03-27T07:08:03.304Z,98092.69
2023-03-27T07:13:38.081Z,98060.66
2023-03-27T07:19:06.096Z,98083.19
2023-03-27T07:24:32.090Z,98084.97
2023-03-27T07:29:54.839Z,98104.53
2023-03-27T07:35:21.184Z,98092.69
2023-03-27T07:41:09.858Z,98107.41
2023-03-27T07:46:53.235Z,98104.66
2023-03-27T07:52:17.580Z,98112.91
2023-03-27T07:58:00.660Z,98103.34
2023-03-27T08:03:28.708Z,98134.75
2023-03-27T08:08:53.913Z,98128.44
2023-03-27T08:14:17.794Z,98140.22
2023-03-27T08:19:40.638Z,98147.63
2023-03-27T08:25:02.405Z,98109.00
2023-03-27T08:30:25.404Z,98114.41
2023-03-27T08:35:51.741Z,98122.88
2023-03-27T08:41:39.564Z,98136.41
2023-03-27T08:47:31.388Z,98128.78
2023-03-27T08:53:00.304Z,98136.63
2023-03-27T08:58:28.898Z,98114.31
2023-03-27T09:04:13.435Z,98141.91
2023-03-27T09:10:18.019Z,98157.44
2023-03-27T09:16:00.576Z,98161.59
2023-03-27T09:21:32.284Z,98140.09
2023-03-27T09:27:27.249Z,98152.91
2023-03-27T09:32:59.805Z,98157.28
2023-03-27T09:38:45.345Z,98186.16
2023-03-27T09:44:25.801Z,98160.38
2023-03-27T09:49:56.826Z,98173.50
2023-03-27T09:55:35.119Z,98167.41
2023-03-27T10:01:14.895Z,98163.13
2023-03-27T10:06:48.690Z,98166.25
2023-03-27T10:12:21.854Z,98163.16
2023-03-27T10:17:49.573Z,98173.38
2023-03-27T10:23:30.525Z,98152.94
2023-03-27T10:29:24.311Z,98170.75
2023-03-27T10:35:25.418Z,98207.25
2023-03-27T10:41:16.011Z,98200.75
2023-03-27T10:46:52.126Z,98184.38
2023-03-27T10:58:34.408Z,98213.28
2023-03-27T11:04:08.864Z,98243.28
2023-03-27T11:10:27.196Z,98207.31
2023-03-27T11:15:54.937Z,98263.94
2023-03-27T11:21:54.646Z,98259.38
2023-03-27T11:27:43.840Z,98268.69
2023-03-27T11:33:28.398Z,98277.72
2023-03-27T11:39:36.453Z,98282.28
2023-03-27T11:45:00.158Z,98275.00
2023-03-27T11:50:42.798Z,98295.69
2023-03-27T11:56:25.682Z,98296.97
2023-03-27T12:02:32.235Z,98291.28
2023-03-27T12:08:23.347Z,98285.59
2023-03-27T12:14:17.618Z,98300.13
2023-03-27T12:19:55.346Z,98316.22
2023-03-27T12:25:52.717Z,98319.22
2023-03-27T12:32:03.049Z,98322.38
2023-03-27T12:37:31.629Z,98303.06
2023-03-27T12:43:21.512Z,98310.16
2023-03-27T12:49:14.238Z,98331.75
2023-03-27T12:55:19.519Z,98302.91
2023-03-27T13:01:11.565Z,98292.34
2023-03-27T13:07:09.216Z,98312.66
2023-03-27T13:13:34.386Z,98311.44
2023-03-27T13:19:56.760Z,98328.63
2023-03-27T13:25:55.063Z,98337.63
2023-03-27T13:32:04.821Z,98348.81
2023-03-27T13:43:35.964Z,98348.00
2023-03-27T13:49:39.621Z,98359.81
2023-03-27T13:55:21.223Z,98360.88
2023-03-27T14:07:46.197Z,98380.78
2023-03-27T14:13:41.716Z,98379.16
2023-03-27T14:19:22.977Z,98379.38
2023-03-27T14:25:03.522Z,98353.78
2023-03-27T14:31:03.058Z,98371.22
2023-03-27T14:36:59.346Z,98384.59
2023-03-27T14:42:33.417Z,98389.00
2023-03-27T14:48:21.816Z,98403.81
2023-03-27T14:53:50.208Z,98408.19
2023-03-27T14:59:37.150Z,98408.63
2023-03-27T15:05:13.464Z,98430.81
2023-03-27T15:10:39.932Z,98442.94
2023-03-27T15:16:03.758Z,98421.47
2023-03-27T15:21:59.790Z,98465.81
2023-03-27T15:27:42.246Z,98463.22
2023-03-27T15:33:12.902Z,98447.91
2023-03-27T15:38:38.059Z,98451.78
2023-03-27T15:44:17.991Z,98460.97
2023-03-27T15:49:42.517Z,98477.72
2023-03-27T15:55:04.784Z,98489.97
2023-03-27T16:00:28.868Z,98496.22
2023-03-27T16:05:55.199Z,98478.47
2023-03-27T16:11:34.422Z,98533.81
2023-03-27T16:17:37.065Z,98537.59
2023-03-27T16:23:05.116Z,98559.69
2023-03-27T16:28:52.295Z,98534.09
2023-03-27T16:39:58.762Z,98570.13
2023-03-27T16:45:21.106Z,98556.72
2023-03-27T16:50:43.173Z,98590.69
2023-03-27T16:56:06.606Z,98585.72
2023-03-27T17:01:29.191Z,98577.09
2023-03-27T17:06:52.451Z,98585.03
2023-03-27T17:12:40.124Z,98608.63
2023-03-27T17:18:02.040Z,98582.00
2023-03-27T17:23:24.640Z,98611.38
2023-03-27T17:28:48.942Z,98603.22
2023-03-27T17:34:11.397Z,98619.69
2023-03-27T17:39:34.928Z,98606.78
2023-03-27T17:44:56.935Z,98606.13
2023-03-27T17:50:19.043Z,98613.72
2023-03-27T17:55:41.441Z,98633.19
2023-03-27T18:01:23.243Z,98636.75
2023-03-27T18:06:45.601Z,98640.56
2023-03-27T18:12:15.043Z,98625.09
2023-03-27T18:17:40.412Z,98646.59
2023-03-27T18:23:03.406Z,98628.41
2023-03-27T18:28:26.974Z,98638.84
2023-03-27T18:33:49.365Z,98649.53
2023-03-27T18:39:12.081Z,98665.47
2023-03-27T18:44:35.429Z,98677.19
2023-03-27T18:49:58.388Z,98656.00
2023-03-27T18:55:21.572Z,98704.59
2023-03-27T19:00:43.986Z,98675.47
2023-03-27T19:06:08.554Z,98713.47
2023-03-27T19:11:31.437Z,98695.97
2023-03-27T19:17:15.469Z,98710.41
2023-03-27T19:22:57.521Z,98720.09
2023-03-27T19:28:26.750Z,98732.94
2023-03-27T19:33:48.765Z,98722.19
2023-03-27T19:39:10.826Z,98715.16
2023-03-27T19:44:32.594Z,98736.19
2023-03-27T19:49:55.561Z,98729.38
2023-03-27T19:55:35.735Z,98732.88
2023-03-27T20:00:58.175Z,98736.06
2023-03-27T20:06:21.079Z,98758.38
2023-03-27T20:11:44.341Z,98766.31
2023-03-27T20:17:12.136Z,98772.66
2023-03-27T20:22:38.707Z,98764.44
2023-03-27T20:28:09.129Z,98786.75
2023-03-27T20:33:31.649Z,98792.41
2023-03-27T20:38:57.001Z,98805.22
2023-03-27T20:44:21.399Z,98810.31
2023-03-27T20:49:43.544Z,98811.16
2023-03-27T20:55:08.067Z,98821.06
2023-03-27T21:00:32.514Z,98822.47
2023-03-27T21:05:54.625Z,98811.88
2023-03-27T21:11:16.358Z,98814.03
2023-03-27T21:16:39.419Z,98815.47
2023-03-27T21:22:01.356Z,98841.28
2023-03-27T21:27:23.519Z,98837.03
2023-03-27T21:32:47.490Z,98836.53
2023-03-27T21:38:09.592Z,98841.88
2023-03-27T21:43:32.641Z,98846.13
2023-03-27T21:48:54.492Z,98855.44
2023-03-27T21:54:16.520Z,98858.34
2023-03-27T21:59:39.032Z,98865.56
2023-03-27T22:05:00.909Z,98877.50
2023-03-27T22:10:23.009Z,98890.31
2023-03-27T22:15:45.527Z,98886.84
2023-03-27T22:21:23.304Z,98889.25
2023-03-27T22:26:45.461Z,98891.91
2023-03-27T22:32:08.018Z,98910.56
2023-03-27T22:37:30.474Z,98903.66
2023-03-27T22:42:52.709Z,98897.81
2023-03-27T22:48:17.006Z,98932.69
2023-03-27T22:53:39.517Z,98917.03
2023-03-27T22:59:01.991Z,98934.53
2023-03-27T23:04:24.773Z,98927.38
2023-03-27T23:09:47.477Z,98930.66
2023-03-27T23:15:10.320Z,98937.59
2023-03-27T23:20:32.993Z,98953.84
2023-03-27T23:25:55.293Z,98956.78
2023-03-27T23:31:19.504Z,98958.94
2023-03-27T23:36:41.629Z,98970.66
2023-03-27T23:42:03.369Z,98983.16
2023-03-27T23:47:25.350Z,98981.28
2023-03-27T23:52:46.985Z,98978.34
2023-03-27T23:58:08.729Z,98993.81
